Time;durP1;ratioP1;P1;durP2;ratioP2;P2;SDS_P1;SDS_P2;PMS_P1;PMS_P2;Temp;Humidity;BMP_temperature;BMP_pressure;BME280_temperature;BME280_humidity;BME280_pressure;Samples;Min_cycle;Max_cycle;Signal;HPM_P1;HPM_P2
2021/09/18 00:02:49;;;;;;;0.57;0.55;;;;;;;11.11;100.00;99663.16;6309822;22;20049;-48
2021/09/18 00:05:51;;;;;;;0.52;0.52;;;;;;;11.18;100.00;99665.53;6319323;22;20030;-48
2021/09/18 00:08:54;;;;;;;1.95;0.77;;;;;;;11.18;100.00;99667.56;6339544;22;20022;-48
2021/09/18 00:11:57;;;;;;;0.73;0.68;;;;;;;11.17;100.00;99666.81;6339352;22;20347;-48
2021/09/18 00:15:01;;;;;;;1.90;1.17;;;;;;;11.14;100.00;99661.41;6339610;22;20029;-48
2021/09/18 00:18:04;;;;;;;0.95;0.73;;;;;;;11.07;100.00;99661.81;6339449;22;20092;-49
2021/09/18 00:21:07;;;;;;;3.38;0.95;;;;;;;11.02;100.00;99666.03;6339691;22;20021;-48
2021/09/18 00:24:10;;;;;;;4.15;0.90;;;;;;;10.98;100.00;99670.31;6339929;22;20021;-48
2021/09/18 00:27:13;;;;;;;1.48;0.95;;;;;;;10.91;100.00;99660.31;6339678;22;20072;-48
2021/09/18 00:30:16;;;;;;;1.83;1.20;;;;;;;10.89;100.00;99651.69;6339917;22;20102;-48
2021/09/18 00:33:19;;;;;;;2.38;1.90;;;;;;;10.91;100.00;99659.53;6339563;22;20069;-48
2021/09/18 00:36:22;;;;;;;4.20;1.45;;;;;;;10.92;100.00;99652.72;6339563;22;20022;-48
2021/09/18 00:39:25;;;;;;;0.80;0.63;;;;;;;10.87;100.00;99645.06;6339899;22;20022;-48
2021/09/18 00:42:27;;;;;;;2.20;1.17;;;;;;;10.86;100.00;99647.06;6339127;22;20088;-48
2021/09/18 00:45:31;;;;;;;1.55;1.42;;;;;;;10.91;100.00;99649.19;6339281;22;20772;-49
2021/09/18 00:48:34;;;;;;;1.50;0.60;;;;;;;10.82;100.00;99645.72;6339148;22;20324;-48
2021/09/18 00:51:37;;;;;;;2.05;0.60;;;;;;;10.82;100.00;99656.88;6339367;22;20458;-48
2021/09/18 00:54:40;;;;;;;10.25;0.95;;;;;;;10.71;100.00;99651.09;6339586;22;20026;-48
2021/09/18 00:57:43;;;;;;;0.55;0.52;;;;;;;10.62;100.00;99649.19;6320294;22;20022;-48
2021/09/18 01:00:46;;;;;;;1.02;0.70;;;;;;;10.63;100.00;99651.50;6337667;22;20331;-48
2021/09/18 01:03:50;;;;;;;2.55;0.65;;;;;;;10.60;100.00;99649.69;6338753;22;20021;-48
2021/09/18 01:06:52;;;;;;;2.03;1.00;;;;;;;10.60;100.00;99651.69;6339448;22;20026;-48
2021/09/18 01:09:57;;;;;;;1.55;1.30;;;;;;;10.57;100.00;99645.06;6339474;22;20022;-48
2021/09/18 01:13:11;;;;;;;0.93;0.65;;;;;;;10.60;100.00;99658.03;6339393;22;20351;-48
2021/09/18 01:16:14;;;;;;;2.03;1.10;;;;;;;10.65;100.00;99657.34;6339516;22;20054;-48
2021/09/18 01:19:18;;;;;;;1.50;1.33;;;;;;;10.67;100.00;99662.44;6339298;22;20021;-48
2021/09/18 01:22:26;;;;;;;2.35;1.15;;;;;;;10.70;100.00;99661.47;6339148;22;20500;-48
2021/09/18 01:25:32;;;;;;;2.58;1.30;;;;;;;10.70;100.00;99657.94;6339309;22;20030;-48
2021/09/18 01:28:39;;;;;;;2.55;1.08;;;;;;;10.69;100.00;99651.59;6339326;22;20071;-48
2021/09/18 01:31:45;;;;;;;0.70;0.57;;;;;;;10.72;100.00;99658.22;6338315;22;20022;-48
2021/09/18 01:34:48;;;;;;;2.42;1.10;;;;;;;10.74;100.00;99650.16;6339443;22;20400;-48
2021/09/18 01:37:52;;;;;;;0.77;0.70;;;;;;;10.76;100.00;99654.00;6338794;22;20049;-48
2021/09/18 01:40:55;;;;;;;1.33;0.70;;;;;;;10.68;100.00;99653.59;6339402;22;20025;-48
2021/09/18 01:43:59;;;;;;;3.50;1.70;;;;;;;10.65;100.00;99645.47;6339267;22;20508;-48
2021/09/18 01:47:02;;;;;;;2.88;0.50;;;;;;;10.60;100.00;99649.69;6339187;22;20026;-48
2021/09/18 01:50:17;;;;;;;0.73;0.73;;;;;;;10.60;100.00;99657.25;6339230;22;20092;-48
2021/09/18 01:53:23;;;;;;;0.38;0.38;;;;;;;10.58;100.00;99649.41;6338831;22;20369;-48
2021/09/18 01:56:26;;;;;;;1.08;0.98;;;;;;;10.50;100.00;99651.00;6337820;22;20032;-48
2021/09/18 01:59:29;;;;;;;0.60;0.60;;;;;;;10.46;100.00;99653.22;6338470;22;20347;-48
2021/09/18 02:02:32;;;;;;;0.75;0.50;;;;;;;10.51;100.00;99644.19;6339004;22;20021;-48
2021/09/18 02:05:35;;;;;;;0.57;0.40;;;;;;;10.50;100.00;99642.66;6338741;22;20338;-48
2021/09/18 02:08:38;;;;;;;0.73;0.40;;;;;;;10.51;100.00;99644.19;6338573;22;20025;-48
2021/09/18 02:11:41;;;;;;;0.73;0.73;;;;;;;10.51;100.00;99643.44;6338910;22;20025;-48
2021/09/18 02:14:43;;;;;;;0.77;0.75;;;;;;;10.57;100.00;99650.63;6338502;22;20030;-48
2021/09/18 02:17:47;;;;;;;1.33;0.90;;;;;;;10.59;100.00;99650.91;6338516;22;20064;-48
2021/09/18 02:20:50;;;;;;;3.22;1.13;;;;;;;10.53;100.00;99647.28;6338519;22;20022;-48
2021/09/18 02:23:53;;;;;;;0.57;0.45;;;;;;;10.52;100.00;99640.19;6338595;22;20063;-48
2021/09/18 02:26:56;;;;;;;0.70;0.70;;;;;;;10.56;100.00;99639.97;6338502;22;20022;-48
2021/09/18 02:30:00;;;;;;;3.28;1.05;;;;;;;10.55;100.00;99639.22;6338496;22;20075;-48
2021/09/18 02:33:04;;;;;;;0.63;0.55;;;;;;;10.56;100.00;99640.75;6339005;22;20347;-48
2021/09/18 02:36:07;;;;;;;0.85;0.40;;;;;;;10.57;100.00;99636.72;6338908;22;20022;-48
2021/09/18 02:39:10;;;;;;;1.48;0.73;;;;;;;10.55;100.00;99630.84;6339049;22;20021;-48
2021/09/18 02:42:13;;;;;;;0.52;0.47;;;;;;;10.62;100.00;99626.91;6338537;22;20025;-48
2021/09/18 02:45:17;;;;;;;0.73;0.47;;;;;;;10.65;100.00;99626.72;6338738;22;20026;-48
2021/09/18 02:48:20;;;;;;;1.58;0.45;;;;;;;10.74;100.00;99627.88;6338537;22;20025;-48
2021/09/18 02:51:23;;;;;;;0.63;0.63;;;;;;;10.81;100.00;99627.47;6338738;22;20071;-48
2021/09/18 02:54:26;;;;;;;3.88;0.98;;;;;;;10.87;100.00;99626.28;6338772;22;20073;-48
2021/09/18 02:57:29;;;;;;;2.20;1.02;;;;;;;10.95;100.00;99632.25;6338778;22;20033;-48
2021/09/18 03:00:32;;;;;;;2.30;0.98;;;;;;;10.98;100.00;99623.69;6338398;22;20152;-48
2021/09/18 03:03:34;;;;;;;0.93;0.75;;;;;;;11.04;100.00;99626.56;6338349;22;20025;-48
2021/09/18 03:06:37;;;;;;;1.45;0.43;;;;;;;11.05;100.00;99630.88;6338251;22;20106;-48
2021/09/18 03:09:40;;;;;;;1.08;0.55;;;;;;;11.09;100.00;99623.84;6340208;22;20555;-48
2021/09/18 03:12:43;;;;;;;1.10;0.75;;;;;;;11.13;100.00;99620.88;6340191;22;20059;-48
2021/09/18 03:15:46;;;;;;;6.55;0.80;;;;;;;11.16;100.00;99615.09;6340404;22;20067;-48
2021/09/18 03:18:49;;;;;;;3.00;1.33;;;;;;;11.24;100.00;99616.22;6340613;22;20068;-48
2021/09/18 03:21:52;;;;;;;2.55;0.85;;;;;;;11.28;100.00;99619.56;6340432;22;20053;-48
2021/09/18 03:24:54;;;;;;;3.25;0.90;;;;;;;11.34;100.00;99631.56;6340630;22;20048;-48
2021/09/18 03:27:57;;;;;;;2.08;0.82;;;;;;;11.41;100.00;99635.97;6340529;22;20053;-48
2021/09/18 03:31:00;;;;;;;2.22;1.23;;;;;;;11.44;100.00;99623.84;6340443;22;20026;-48
2021/09/18 03:34:03;;;;;;;1.33;0.63;;;;;;;11.52;100.00;99627.72;6340573;22;20377;-48
2021/09/18 03:37:06;;;;;;;1.20;0.77;;;;;;;11.54;100.00;99628.03;6340298;22;20067;-48
2021/09/18 03:40:11;;;;;;;2.10;0.70;;;;;;;11.62;100.00;99637.50;6340602;22;20114;-48
2021/09/18 03:43:14;;;;;;;1.90;0.70;;;;;;;11.66;100.00;99635.28;6340176;22;20053;-48
2021/09/18 03:46:17;;;;;;;2.22;0.68;;;;;;;11.65;100.00;99639.31;6339739;22;20049;-48
2021/09/18 03:49:20;;;;;;;2.67;0.85;;;;;;;11.60;100.00;99640.03;6340226;22;20083;-48
2021/09/18 03:52:26;;;;;;;1.02;0.52;;;;;;;11.65;100.00;99633.72;6339977;22;20022;-48
2021/09/18 03:55:29;;;;;;;0.60;0.60;;;;;;;11.67;100.00;99636.09;6340166;22;20045;-48
2021/09/18 03:58:32;;;;;;;0.28;0.13;;;;;;;11.63;100.00;99641.06;6339951;22;20075;-48
2021/09/18 04:01:35;;;;;;;0.80;0.40;;;;;;;11.61;100.00;99644.34;6339665;22;20026;-48
2021/09/18 04:04:38;;;;;;;1.67;1.35;;;;;;;11.57;100.00;99638.19;6339822;22;20097;-48
2021/09/18 04:07:41;;;;;;;0.88;0.80;;;;;;;11.52;100.00;99638.88;6339045;22;20709;-48
2021/09/18 04:10:45;;;;;;;1.83;1.30;;;;;;;11.46;100.00;99643.63;6338847;22;20022;-48
2021/09/18 04:13:48;;;;;;;2.03;1.15;;;;;;;11.41;100.00;99636.72;6338908;22;20025;-48
2021/09/18 04:16:51;;;;;;;2.55;0.77;;;;;;;11.36;100.00;99650.59;6339279;22;20492;-48
2021/09/18 04:19:54;;;;;;;5.10;0.80;;;;;;;11.33;100.00;99643.97;6339136;22;20021;-48
2021/09/18 04:22:56;;;;;;;6.00;0.70;;;;;;;11.29;100.00;99651.00;6340195;22;20025;-48
2021/09/18 04:25:59;;;;;;;2.42;1.38;;;;;;;11.23;100.00;99644.56;6340054;22;20458;-48
2021/09/18 04:29:02;;;;;;;0.70;0.70;;;;;;;11.21;100.00;99644.31;6339636;22;20343;-48
2021/09/18 04:32:06;;;;;;;0.75;0.57;;;;;;;11.21;100.00;99649.88;6339743;22;20091;-48
2021/09/18 04:35:09;;;;;;;6.75;1.08;;;;;;;11.21;100.00;99645.06;6339861;22;20075;-48
2021/09/18 04:38:12;;;;;;;3.28;0.93;;;;;;;11.24;100.00;99646.88;6339958;22;20383;-48
2021/09/18 04:41:14;;;;;;;2.50;1.05;;;;;;;11.26;100.00;99651.97;6339626;22;20022;-48
2021/09/18 04:44:17;;;;;;;19.52;1.15;;;;;;;11.30;100.00;99655.34;6339749;22;20025;-48
2021/09/18 04:47:20;;;;;;;1.02;0.55;;;;;;;11.26;100.00;99651.97;6339646;22;20049;-48
2021/09/18 04:50:23;;;;;;;0.57;0.57;;;;;;;11.28;100.00;99655.06;6339492;22;20447;-48
2021/09/18 04:53:26;;;;;;;8.52;2.13;;;;;;;11.35;100.00;99654.63;6339521;22;20025;-48
2021/09/18 04:56:29;;;;;;;13.98;2.08;;;;;;;11.38;100.00;99642.50;6339711;22;20072;-48
2021/09/18 04:59:32;;;;;;;2.15;1.60;;;;;;;11.37;100.00;99658.47;6339376;22;20026;-48
2021/09/18 05:02:35;;;;;;;5.50;2.35;;;;;;;11.39;100.00;99658.75;6339680;22;20022;-48
2021/09/18 05:05:38;;;;;;;8.27;3.40;;;;;;;11.41;100.00;99653.44;6339489;22;20076;-48
2021/09/18 05:08:41;;;;;;;5.60;1.83;;;;;;;11.40;100.00;99646.34;6339207;22;20098;-48
2021/09/18 05:11:43;;;;;;;10.02;1.98;;;;;;;11.37;100.00;99652.13;6339066;22;20036;-48
2021/09/18 05:14:46;;;;;;;9.70;2.88;;;;;;;11.38;100.00;99642.50;6339101;22;20026;-48
2021/09/18 05:17:49;;;;;;;2.60;1.30;;;;;;;11.39;100.00;99649.63;6338861;22;20033;-48
2021/09/18 05:20:52;;;;;;;6.30;1.70;;;;;;;11.41;100.00;99656.25;6338806;22;20079;-48
2021/09/18 05:23:55;;;;;;;8.10;2.10;;;;;;;11.41;100.00;99655.50;6338359;22;20071;-48
2021/09/18 05:26:58;;;;;;;4.00;1.45;;;;;;;11.44;100.00;99658.06;6337993;22;20037;-48
2021/09/18 05:30:01;;;;;;;5.93;1.92;;;;;;;11.45;100.00;99658.84;6338600;22;20050;-48
2021/09/18 05:33:03;;;;;;;6.75;2.20;;;;;;;11.45;100.00;99658.84;6338974;22;20497;-48
2021/09/18 05:36:06;;;;;;;6.55;3.03;;;;;;;11.43;100.00;99662.09;6339171;22;20488;-48
2021/09/18 05:39:10;;;;;;;2.53;1.35;;;;;;;11.36;100.00;99664.53;6339088;22;20401;-48
2021/09/18 05:42:12;;;;;;;1.85;0.73;;;;;;;11.30;100.00;99667.22;6339110;22;20022;-48
2021/09/18 05:45:16;;;;;;;3.25;0.95;;;;;;;11.26;100.00;99677.06;6337735;22;20021;-48
2021/09/18 05:48:19;;;;;;;10.10;1.90;;;;;;;11.29;100.00;99667.72;6338634;22;20030;-48
2021/09/18 05:51:21;;;;;;;3.10;1.10;;;;;;;11.27;100.00;99675.81;6339047;22;20022;-48
2021/09/18 05:54:27;;;;;;;2.10;1.02;;;;;;;11.29;100.00;99667.72;6338731;22;20026;-48
2021/09/18 05:57:30;;;;;;;2.90;1.20;;;;;;;11.29;100.00;99667.72;6339132;22;20102;-48
2021/09/18 06:00:33;;;;;;;2.33;1.17;;;;;;;11.35;100.00;99666.56;6338606;22;20021;-48
2021/09/18 06:03:41;;;;;;;3.80;1.20;;;;;;;11.36;100.00;99672.91;6338439;22;20396;-48
2021/09/18 06:06:45;;;;;;;5.57;1.40;;;;;;;11.34;100.00;99669.84;6338851;22;20049;-48
2021/09/18 06:09:48;;;;;;;0.50;0.50;;;;;;;11.25;100.00;99669.94;6338596;22;20073;-48
2021/09/18 06:12:50;;;;;;;3.65;0.90;;;;;;;11.19;100.00;99663.53;6338646;22;20026;-48
2021/09/18 06:15:54;;;;;;;5.57;1.65;;;;;;;11.15;100.00;99677.66;6338152;22;20018;-48
2021/09/18 06:18:57;;;;;;;1.23;0.50;;;;;;;11.12;100.00;99680.66;6338685;22;20076;-48
2021/09/18 06:22:00;;;;;;;2.35;0.70;;;;;;;11.02;100.00;99674.41;6337557;22;20358;-49
2021/09/18 06:25:04;;;;;;;2.72;1.35;;;;;;;11.00;100.00;99681.72;6339144;22;20320;-49
2021/09/18 06:28:07;;;;;;;1.23;0.90;;;;;;;11.03;100.00;99689.09;6338608;22;20057;-49
2021/09/18 06:31:10;;;;;;;0.80;0.40;;;;;;;10.97;100.00;99682.69;6338595;22;20075;-49
2021/09/18 06:34:13;;;;;;;3.42;0.88;;;;;;;10.94;100.00;99686.44;6338160;22;20148;-48
2021/09/18 06:37:16;;;;;;;4.55;1.83;;;;;;;10.88;100.00;99691.91;6337800;22;20352;-49
2021/09/18 06:40:20;;;;;;;2.78;1.90;;;;;;;10.86;100.00;99688.06;6336644;22;20025;-49
2021/09/18 06:43:24;;;;;;;2.50;0.90;;;;;;;10.86;100.00;99696.44;6319511;22;20080;-49
2021/09/18 06:46:27;;;;;;;2.92;1.00;;;;;;;10.86;100.00;99697.22;6338257;22;20022;-49
2021/09/18 06:49:30;;;;;;;3.55;0.95;;;;;;;10.85;100.00;99706.06;6339121;22;20105;-49
2021/09/18 06:52:33;;;;;;;1.65;1.17;;;;;;;10.86;100.00;99711.13;6339023;22;20076;-49
2021/09/18 06:55:37;;;;;;;7.78;2.60;;;;;;;10.91;100.00;99706.91;6340399;22;20184;-49
2021/09/18 06:58:40;;;;;;;12.10;2.42;;;;;;;10.97;100.00;99702.19;6339793;22;20021;-49
2021/09/18 07:01:43;;;;;;;13.02;3.72;;;;;;;11.19;100.00;99708.13;6340339;22;20025;-49
2021/09/18 07:04:46;;;;;;;12.65;3.47;;;;;;;11.34;100.00;99697.72;6340236;22;20029;-49
2021/09/18 07:07:49;;;;;;;8.18;2.65;;;;;;;11.45;100.00;99695.09;6340394;22;20029;-49
2021/09/18 07:10:52;;;;;;;6.60;2.55;;;;;;;11.53;100.00;99699.00;6340162;22;20034;-49
2021/09/18 07:13:55;;;;;;;5.47;2.08;;;;;;;11.62;100.00;99710.03;6340250;22;20030;-49
2021/09/18 07:16:58;;;;;;;8.57;2.60;;;;;;;11.66;100.00;99702.22;6339959;22;20022;-49
2021/09/18 07:20:01;;;;;;;2.97;1.50;;;;;;;11.65;100.00;99711.09;6340358;22;20073;-49
2021/09/18 07:23:04;;;;;;;4.50;2.22;;;;;;;11.82;100.00;99710.09;6339659;22;20111;-49
2021/09/18 07:26:07;;;;;;;23.38;2.03;;;;;;;11.95;100.00;99713.28;6321173;22;20094;-49
2021/09/18 07:29:11;;;;;;;4.15;2.15;;;;;;;12.05;100.00;99711.91;6338142;22;20553;-49
2021/09/18 07:32:13;;;;;;;3.33;1.65;;;;;;;12.19;100.00;99718.66;6339228;22;20068;-49
2021/09/18 07:35:17;;;;;;;5.93;1.67;;;;;;;12.29;100.00;99722.84;6339477;22;20466;-49
2021/09/18 07:38:20;;;;;;;4.70;1.90;;;;;;;12.41;100.00;99718.16;6339890;22;20021;-49
2021/09/18 07:41:22;;;;;;;2.42;1.27;;;;;;;12.66;100.00;99725.78;6339369;22;20107;-49
2021/09/18 07:44:25;;;;;;;13.95;3.20;;;;;;;12.91;100.00;99724.97;6339942;22;20076;-49
2021/09/18 07:47:28;;;;;;;10.40;3.53;;;;;;;13.17;100.00;99728.53;6339045;22;20042;-49
2021/09/18 07:50:31;;;;;;;6.68;3.30;;;;;;;13.47;100.00;99732.56;6339737;22;20030;-49
2021/09/18 07:53:35;;;;;;;6.10;3.55;;;;;;;13.77;100.00;99732.28;6319884;22;20473;-49
2021/09/18 07:56:38;;;;;;;9.85;3.78;;;;;;;14.11;100.00;99733.97;6339816;22;20496;-49
2021/09/18 07:59:41;;;;;;;14.43;5.07;;;;;;;14.32;100.00;99738.13;6339618;22;20021;-49
2021/09/18 08:02:43;;;;;;;12.95;3.45;;;;;;;14.63;100.00;99740.78;6339625;22;20063;-49
2021/09/18 08:05:46;;;;;;;14.68;4.68;;;;;;;14.85;100.00;99729.63;6339684;22;20060;-49
2021/09/18 08:08:49;;;;;;;9.60;2.58;;;;;;;14.87;100.00;99735.50;6339504;22;20030;-49
2021/09/18 08:11:52;;;;;;;8.15;2.85;;;;;;;15.00;100.00;99735.75;6339508;22;20030;-50
2021/09/18 08:14:55;;;;;;;12.45;3.55;;;;;;;15.19;100.00;99736.00;6339608;22;20067;-49
2021/09/18 08:17:58;;;;;;;11.38;4.65;;;;;;;15.31;100.00;99731.91;6320429;22;20347;-49
2021/09/18 08:21:01;;;;;;;18.15;5.28;;;;;;;15.48;100.00;99734.75;6339288;22;20037;-49
2021/09/18 08:24:04;;;;;;;14.55;4.47;;;;;;;15.65;100.00;99733.44;6339609;22;20141;-50
2021/09/18 08:27:08;;;;;;;18.15;3.38;;;;;;;15.79;100.00;99731.63;6339353;22;20066;-49
2021/09/18 08:30:13;;;;;;;9.70;4.20;;;;;;;15.99;100.00;99739.72;6339189;22;20040;-49
2021/09/18 08:33:16;;;;;;;15.90;4.20;;;;;;;16.28;100.00;99744.75;6320604;22;20037;-49
2021/09/18 08:36:19;;;;;;;10.85;3.25;;;;;;;16.37;100.00;99736.00;6339356;22;20026;-50
2021/09/18 08:39:22;;;;;;;7.80;3.25;;;;;;;16.52;100.00;99736.47;6339438;22;20025;-49
2021/09/18 08:42:26;;;;;;;13.57;3.75;;;;;;;16.68;100.00;99738.44;6323033;22;20036;-49
2021/09/18 08:45:31;;;;;;;15.80;4.78;;;;;;;16.71;100.00;99727.41;6309721;22;20017;-50
2021/09/18 08:48:38;;;;;;;10.52;3.97;;;;;;;16.87;100.00;99730.09;6309655;22;20013;-49
2021/09/18 08:51:43;;;;;;;7.70;2.47;;;;;;;16.94;100.00;99732.38;6338315;22;20323;-50
2021/09/18 08:54:46;;;;;;;13.50;4.10;;;;;;;17.31;100.00;99731.81;6339300;22;20361;-49
2021/09/18 08:57:50;;;;;;;11.93;3.33;;;;;;;17.66;100.00;99734.59;6339075;22;20026;-49
2021/09/18 09:00:55;;;;;;;12.65;4.80;;;;;;;17.80;100.00;99724.22;6338141;22;20029;-50
2021/09/18 09:04:01;;;;;;;7.45;3.28;;;;;;;17.89;100.00;99718.97;6339008;22;20026;-50
2021/09/18 09:07:07;;;;;;;13.00;2.60;;;;;;;18.10;100.00;99722.81;6338534;22;20025;-50
2021/09/18 09:10:11;;;;;;;14.07;4.70;;;;;;;18.44;100.00;99711.13;6339156;22;20140;-50
2021/09/18 09:13:16;;;;;;;10.20;3.75;;;;;;;18.41;100.00;99700.94;6338938;22;20071;-50
2021/09/18 09:16:19;;;;;;;10.93;3.30;;;;;;;18.24;100.00;99692.69;6338674;22;20053;-50
2021/09/18 09:19:29;;;;;;;11.38;4.57;;;;;;;18.00;100.00;99701.94;6338766;22;20029;-50
2021/09/18 09:22:47;;;;;;;12.38;3.92;;;;;;;18.09;100.00;99718.50;6338529;22;20057;-50
2021/09/18 09:25:53;;;;;;;12.98;2.50;;;;;;;18.08;100.00;99713.41;6338565;22;20378;-50
2021/09/18 09:28:56;;;;;;;8.00;3.53;;;;;;;18.04;100.00;99713.69;6319969;22;20021;-50
2021/09/18 09:31:58;;;;;;;7.65;3.00;;;;;;;17.93;100.00;99713.81;6338856;22;20530;-50
2021/09/18 09:35:12;;;;;;;13.98;4.82;;;;;;;18.03;100.00;99712.16;6339160;22;20123;-49
2021/09/18 09:38:16;;;;;;;16.55;3.88;;;;;;;18.21;100.00;99715.53;6339253;22;20393;-50
2021/09/18 09:41:31;;;;;;;7.72;3.33;;;;;;;18.30;100.00;99715.91;6338891;22;20059;-50
2021/09/18 09:44:36;;;;;;;10.00;1.80;;;;;;;18.22;100.00;99711.41;6338897;22;20096;-50
2021/09/18 09:47:40;;;;;;;9.27;2.72;;;;;;;18.22;100.00;99717.06;6319821;22;20026;-50
2021/09/18 09:50:54;;;;;;;7.00;2.10;;;;;;;18.24;100.00;99715.22;6338178;22;20488;-49
2021/09/18 09:54:20;;;;;;;6.88;1.88;;;;;;;18.34;100.00;99707.19;6338693;22;20061;-50
2021/09/18 09:57:25;;;;;;;9.30;2.42;;;;;;;18.35;100.00;99711.50;6338611;22;20072;-50
2021/09/18 10:00:35;;;;;;;8.35;2.30;;;;;;;18.56;100.00;99709.72;6337795;22;20068;-50
2021/09/18 10:03:39;;;;;;;15.02;3.72;;;;;;;18.57;100.00;99708.41;6337741;22;20025;-50
2021/09/18 10:06:43;;;;;;;6.47;2.58;;;;;;;18.55;100.00;99708.97;6337803;22;20021;-49
2021/09/18 10:09:47;;;;;;;8.95;2.70;;;;;;;18.70;100.00;99705.66;6338058;22;20026;-49
2021/09/18 10:12:50;;;;;;;3.97;1.50;;;;;;;18.79;100.00;99713.75;6338253;22;20461;-49
2021/09/18 10:15:54;;;;;;;7.28;2.20;;;;;;;18.70;100.00;99711.31;6338227;22;20117;-49
2021/09/18 10:18:58;;;;;;;6.53;2.10;;;;;;;18.82;100.00;99709.84;6338548;22;20063;-49
2021/09/18 10:25:33;;;;;;;8.93;2.17;;;;;;;18.93;100.00;99706.84;6337696;22;20025;-50
2021/09/18 10:28:45;;;;;;;7.07;1.45;;;;;;;18.83;100.00;99712.13;6337643;22;20061;-50
2021/09/18 10:32:02;;;;;;;7.60;1.80;;;;;;;19.10;100.00;99703.78;6336715;22;20444;-50
2021/09/18 10:35:14;;;;;;;8.23;1.85;;;;;;;19.19;100.00;99701.28;6338254;22;20025;-50
2021/09/18 10:38:24;;;;;;;8.40;1.42;;;;;;;19.11;100.00;99705.28;6338747;22;20029;-49
2021/09/18 10:41:43;;;;;;;2.90;1.27;;;;;;;18.97;100.00;99698.84;6337517;22;20083;-50
2021/09/18 10:44:51;;;;;;;1.65;0.80;;;;;;;18.91;100.00;99698.16;6337870;22;20021;-50
2021/09/18 10:48:04;;;;;;;1.27;0.65;;;;;;;18.75;100.00;99702.00;6337950;22;20374;-50
2021/09/18 10:51:08;;;;;;;1.42;0.82;;;;;;;19.00;100.00;99700.56;6318499;22;20025;-59
2021/09/18 10:54:15;;;;;;;3.22;0.98;;;;;;;19.43;100.00;99695.50;6337349;22;20465;-58
2021/09/18 10:57:21;;;;;;;6.07;1.42;;;;;;;19.56;100.00;99695.53;6337181;22;20470;-60
2021/09/18 11:00:24;;;;;;;2.95;0.85;;;;;;;19.94;100.00;99687.63;6337162;22;20021;-59
2021/09/18 11:03:37;;;;;;;3.45;0.95;;;;;;;20.18;100.00;99689.44;6338064;22;20439;-58
2021/09/18 11:06:41;;;;;;;1.10;0.47;;;;;;;20.21;100.00;99691.19;6338427;22;20107;-59
2021/09/18 11:09:48;;;;;;;2.65;0.80;;;;;;;20.13;100.00;99687.47;6338253;22;20064;-59
2021/09/18 11:13:10;;;;;;;4.05;0.63;;;;;;;20.08;100.00;99688.34;6337847;22;20021;-58
2021/09/18 11:16:24;;;;;;;1.90;0.50;;;;;;;20.00;100.00;99688.25;6338138;22;20021;-58
2021/09/18 11:19:27;;;;;;;3.60;0.60;;;;;;;19.95;100.00;99691.94;6319133;22;20119;-59
2021/09/18 11:22:39;;;;;;;1.90;1.00;;;;;;;20.13;100.00;99685.41;6318700;22;20029;-58
2021/09/18 11:25:46;;;;;;;2.30;0.85;;;;;;;19.98;100.00;99679.56;6338208;22;20110;-59
2021/09/18 11:28:53;;;;;;;2.47;0.98;;;;;;;19.93;100.00;99682.50;6338417;22;20029;-58
2021/09/18 11:32:05;;;;;;;3.88;1.20;;;;;;;20.12;100.00;99677.50;6340072;22;20025;-58
2021/09/18 11:35:08;;;;;;;2.83;1.42;;;;;;;20.63;100.00;99669.44;6339878;22;20025;-59
2021/09/18 11:38:12;;;;;;;3.33;1.13;;;;;;;20.91;100.00;99667.47;6339796;22;20068;-58
2021/09/18 11:41:20;;;;;;;4.72;0.50;;;;;;;21.04;100.00;99669.50;6339743;22;20026;-58
2021/09/18 11:44:32;;;;;;;3.97;1.17;;;;;;;21.13;100.00;99666.19;6339773;22;20098;-57
2021/09/18 11:47:40;;;;;;;1.67;0.40;;;;;;;21.26;100.00;99668.19;6339719;22;20022;-58
2021/09/18 11:50:45;;;;;;;3.88;0.40;;;;;;;21.42;100.00;99667.75;6339386;22;20106;-58
2021/09/18 11:54:07;;;;;;;4.18;1.02;;;;;;;21.47;100.00;99664.00;6339877;22;20524;-57
2021/09/18 11:57:10;;;;;;;5.43;1.05;;;;;;;21.37;100.00;99665.06;6340126;22;20324;-58
2021/09/18 12:00:16;;;;;;;2.92;0.47;;;;;;;21.36;100.00;99661.47;6339960;22;20064;-58
2021/09/18 12:03:23;;;;;;;1.92;0.77;;;;;;;21.39;100.00;99665.25;6339904;22;20025;-58
2021/09/18 12:06:29;;;;;;;3.83;0.77;;;;;;;21.40;100.00;99661.09;6339776;22;20035;-56
2021/09/18 12:09:34;;;;;;;5.55;1.05;;;;;;;21.29;100.00;99650.81;6339088;22;20449;-55
2021/09/18 12:12:37;;;;;;;5.65;0.75;;;;;;;21.19;100.00;99652.66;6338967;22;20115;-55
2021/09/18 12:15:43;;;;;;;1.67;0.50;;;;;;;21.21;100.00;99654.91;6338355;22;20026;-56
2021/09/18 12:18:49;;;;;;;2.03;0.45;;;;;;;21.33;100.00;99656.91;6338735;22;20025;-56
2021/09/18 12:21:52;;;;;;;1.27;0.20;;;;;;;21.34;100.00;99657.66;6338266;22;20450;-55
2021/09/18 12:24:56;;;;;;;1.60;0.55;;;;;;;21.24;100.00;99654.59;6338916;22;20025;-56
2021/09/18 12:28:02;;;;;;;1.60;0.17;;;;;;;21.34;100.00;99657.66;6338793;22;20045;-56
2021/09/18 12:31:32;;;;;;;1.95;0.93;;;;;;;21.38;100.00;99655.22;6339038;22;20071;-56
2021/09/18 12:34:38;;;;;;;2.03;0.70;;;;;;;21.24;100.00;99648.16;6339153;22;20025;-56
2021/09/18 12:37:42;;;;;;;2.00;0.10;;;;;;;21.20;100.00;99647.75;6339027;22;20084;-55
2021/09/18 12:40:48;;;;;;;3.40;0.60;;;;;;;21.36;100.00;99649.38;6339093;22;20073;-56
2021/09/18 12:44:06;;;;;;;1.45;0.57;;;;;;;21.80;100.00;99639.66;6339490;22;20021;-56
2021/09/18 12:47:21;;;;;;;3.72;0.32;;;;;;;21.99;100.00;99637.31;6339118;22;20026;-56
2021/09/18 12:50:23;;;;;;;1.50;0.60;;;;;;;21.94;100.00;99646.75;6339093;22;20102;-56
2021/09/18 12:53:47;;;;;;;5.30;0.30;;;;;;;21.83;100.00;99647.81;6338558;22;20084;-56
2021/09/18 12:56:50;;;;;;;1.27;0.20;;;;;;;21.92;100.00;99632.38;6339053;22;20026;-54
2021/09/18 13:00:05;;;;;;;1.70;0.45;;;;;;;21.83;100.00;99641.38;6338935;22;20025;-56
2021/09/18 13:03:12;;;;;;;2.60;0.60;;;;;;;21.71;100.00;99634.50;6320407;22;20377;-57
2021/09/18 13:06:16;;;;;;;2.33;0.52;;;;;;;21.57;100.00;99635.94;6338746;22;20040;-57
2021/09/18 13:09:24;;;;;;;2.72;0.68;;;;;;;21.76;100.00;99636.44;6338711;22;20091;-57
2021/09/18 13:12:28;;;;;;;1.40;0.40;;;;;;;22.00;100.00;99640.91;6338790;22;20098;-56
2021/09/18 13:15:32;;;;;;;3.00;0.70;;;;;;;22.23;100.00;99639.69;6319050;22;20025;-58
2021/09/18 13:18:40;;;;;;;1.55;0.17;;;;;;;22.44;100.00;99643.16;6338639;22;20018;-58
2021/09/18 13:21:43;;;;;;;1.80;0.55;;;;;;;22.63;100.00;99642.13;6338589;22;20021;-57
2021/09/18 13:24:47;;;;;;;2.22;0.80;;;;;;;22.52;100.00;99643.94;6336629;22;20094;-57
2021/09/18 13:27:50;;;;;;;6.22;0.98;;;;;;;22.32;100.00;99633.50;6336455;22;20384;-49
2021/09/18 13:30:53;;;;;;;2.08;1.25;;;;;;;22.20;100.00;99634.41;6336912;22;20488;-48
2021/09/18 13:33:56;;;;;;;2.05;0.30;;;;;;;22.16;100.00;99634.75;6317685;22;20026;-48
2021/09/18 13:36:59;;;;;;;1.20;0.35;;;;;;;21.89;100.00;99627.84;6337473;22;20025;-48
2021/09/18 13:40:02;;;;;;;4.45;0.90;;;;;;;21.99;100.00;99622.38;6338513;22;20414;-48
2021/09/18 13:43:05;;;;;;;2.42;0.47;;;;;;;22.18;100.00;99626.44;6338714;22;20033;-50
2021/09/18 13:46:08;;;;;;;0.57;0.20;;;;;;;22.26;100.00;99604.50;6338742;22;20075;-50
2021/09/18 13:49:11;;;;;;;1.27;0.52;;;;;;;22.04;100.00;99610.88;6339019;22;20434;-50
2021/09/18 13:52:14;;;;;;;2.35;0.20;;;;;;;21.96;100.00;99610.06;6338234;22;20022;-50
2021/09/18 13:55:18;;;;;;;2.63;0.50;;;;;;;22.32;100.00;99607.19;6338671;22;20025;-49
2021/09/18 13:58:22;;;;;;;4.53;0.70;;;;;;;22.58;100.00;99601.19;6338185;22;20053;-50
2021/09/18 14:01:25;;;;;;;2.60;0.80;;;;;;;22.62;100.00;99607.28;6338431;22;20030;-50
2021/09/18 14:04:28;;;;;;;3.17;0.40;;;;;;;22.83;100.00;99599.34;6338570;22;20320;-50
2021/09/18 14:07:31;;;;;;;3.65;1.17;;;;;;;23.08;100.00;99593.88;6338284;22;20026;-49
2021/09/18 14:10:34;;;;;;;1.13;0.22;;;;;;;23.11;100.00;99593.50;6338416;22;20158;-49
2021/09/18 14:13:37;;;;;;;3.35;0.38;;;;;;;23.38;100.00;99596.72;6337751;22;20053;-49
2021/09/18 14:16:41;;;;;;;1.02;0.47;;;;;;;23.41;100.00;99592.75;6337863;22;20064;-50
2021/09/18 14:19:43;;;;;;;1.00;0.52;;;;;;;23.05;100.00;99595.00;6319079;22;20026;-50
2021/09/18 14:22:46;;;;;;;2.80;0.25;;;;;;;22.70;100.00;99590.28;6338334;22;20022;-49